Time;durP1;ratioP1;P1;durP2;ratioP2;P2;SDS_P1;SDS_P2;PMS_P1;PMS_P2;Temp;Humidity;BMP_temperature;BMP_pressure;BME280_temperature;BME280_humidity;BME280_pressure;Samples;Min_cycle;Max_cycle;Signal;HPM_P1;HPM_P2
2022/11/12 00:00:53;;;;;;;16.13;12.93;;;8.50;99.90;;;;;;5061518;28;20208;-54
2022/11/12 00:03:20;;;;;;;19.20;13.33;;;8.50;99.90;;;;;;5060709;28;20315;-53
2022/11/12 00:05:49;;;;;;;15.07;11.17;;;8.60;99.90;;;;;;5064422;28;20477;-54
2022/11/12 00:08:17;;;;;;;19.40;13.50;;;8.60;99.90;;;;;;5064665;28;20209;-52
2022/11/12 00:10:44;;;;;;;15.73;12.50;;;8.50;99.90;;;;;;5064621;28;20238;-53
2022/11/12 00:13:12;;;;;;;18.03;13.77;;;8.60;99.90;;;;;;5064874;28;20192;-51
2022/11/12 00:15:39;;;;;;;21.87;13.80;;;8.50;99.90;;;;;;5063873;28;20212;-51
2022/11/12 00:18:06;;;;;;;14.83;13.23;;;8.50;99.90;;;;;;5066202;28;20687;-55
2022/11/12 00:20:34;;;;;;;19.37;12.77;;;8.50;99.90;;;;;;5064888;28;20213;-53
2022/11/12 00:23:01;;;;;;;17.90;13.63;;;8.50;99.90;;;;;;5066463;28;20744;-54
2022/11/12 00:25:28;;;;;;;17.80;13.17;;;8.40;99.90;;;;;;5069186;28;20216;-53
2022/11/12 00:28:01;;;;;;;18.13;13.07;;;8.40;99.90;;;;;;5067764;28;20659;-52
2022/11/12 00:30:28;;;;;;;15.03;12.40;;;8.50;99.90;;;;;;5068810;28;20668;-53
2022/11/12 00:32:55;;;;;;;15.50;12.57;;;8.50;99.90;;;;;;5070561;28;20200;-53
2022/11/12 00:35:22;;;;;;;16.83;12.60;;;8.40;99.90;;;;;;5067791;28;20998;-51
2022/11/12 00:37:54;;;;;;;15.57;12.23;;;8.30;99.90;;;;;;5066586;28;21373;-53
2022/11/12 00:40:20;;;;;;;21.13;13.50;;;8.30;99.90;;;;;;5070119;28;20220;-52
2022/11/12 00:42:49;;;;;;;17.33;13.10;;;8.30;99.90;;;;;;5071320;28;20207;-52
2022/11/12 00:45:17;;;;;;;17.73;13.20;;;8.20;99.90;;;;;;5069738;28;20210;-53
2022/11/12 00:47:44;;;;;;;18.37;13.77;;;8.20;99.90;;;;;;5068384;28;20212;-53
2022/11/12 00:50:11;;;;;;;18.57;13.50;;;8.10;99.90;;;;;;5067589;28;20298;-51
2022/11/12 00:52:38;;;;;;;17.30;13.50;;;8.10;99.90;;;;;;5067194;28;20285;-52
2022/11/12 00:55:05;;;;;;;16.33;12.53;;;8.20;99.90;;;;;;5065098;28;20190;-52
2022/11/12 00:57:32;;;;;;;17.53;13.50;;;8.10;99.90;;;;;;5068074;28;20205;-53
2022/11/12 00:59:58;;;;;;;19.70;13.27;;;8.10;99.90;;;;;;5066813;28;20220;-52
2022/11/12 01:02:25;;;;;;;16.33;12.97;;;8.10;99.90;;;;;;5066177;28;20667;-54
2022/11/12 01:04:52;;;;;;;17.00;13.20;;;8.10;99.90;;;;;;5062048;28;20195;-54
2022/11/12 01:07:19;;;;;;;18.53;13.97;;;8.10;99.90;;;;;;5064331;28;20257;-52
2022/11/12 01:09:46;;;;;;;18.60;14.07;;;8.10;99.90;;;;;;5067157;28;20241;-51
2022/11/12 01:12:12;;;;;;;18.87;13.60;;;8.20;99.90;;;;;;5064510;28;20205;-54
2022/11/12 01:14:39;;;;;;;20.20;14.30;;;8.20;99.90;;;;;;5066306;28;20301;-53
2022/11/12 01:17:06;;;;;;;18.43;13.77;;;8.20;99.90;;;;;;5063325;28;20287;-53
2022/11/12 01:19:33;;;;;;;18.23;13.47;;;8.20;99.90;;;;;;5067668;28;20206;-54
2022/11/12 01:22:00;;;;;;;18.50;13.33;;;8.10;99.90;;;;;;5064373;28;20214;-52
2022/11/12 01:24:26;;;;;;;18.43;12.53;;;8.10;99.90;;;;;;5061870;28;20234;-53
2022/11/12 01:26:53;;;;;;;18.00;13.40;;;8.10;99.90;;;;;;5066764;28;20206;-52
2022/11/12 01:29:20;;;;;;;14.60;12.70;;;8.10;99.90;;;;;;5067123;28;20217;-53
2022/11/12 01:31:47;;;;;;;16.97;14.00;;;8.10;99.90;;;;;;5066351;28;22006;-52
2022/11/12 01:34:13;;;;;;;19.77;13.33;;;8.00;99.90;;;;;;5060547;28;20197;-52
2022/11/12 01:36:41;;;;;;;17.03;13.43;;;7.90;99.90;;;;;;5065895;28;20218;-53
2022/11/12 01:39:08;;;;;;;16.23;13.03;;;7.90;99.90;;;;;;5070113;28;20200;-52
2022/11/12 01:41:38;;;;;;;19.73;13.43;;;7.80;99.90;;;;;;5063513;28;20206;-52
2022/11/12 01:44:14;;;;;;;15.33;12.57;;;7.80;99.90;;;;;;5068204;28;20691;-53
2022/11/12 01:46:55;;;;;;;17.93;12.60;;;7.80;99.90;;;;;;5066821;28;20192;-51
2022/11/12 01:49:38;;;;;;;16.73;12.83;;;7.80;99.90;;;;;;5059212;28;20225;-51
2022/11/12 01:52:37;;;;;;;17.33;12.43;;;7.80;99.90;;;;;;5066500;28;20192;-55
2022/11/12 01:55:08;;;;;;;19.20;13.40;;;7.80;99.90;;;;;;5058495;28;20297;-55
2022/11/12 01:58:04;;;;;;;16.47;12.93;;;7.80;99.90;;;;;;5067650;28;20825;-54
2022/11/12 02:00:30;;;;;;;17.23;12.00;;;7.70;99.90;;;;;;5064024;28;20201;-53
2022/11/12 02:02:59;;;;;;;14.30;12.10;;;7.70;99.90;;;;;;5063269;28;20199;-52
2022/11/12 02:05:28;;;;;;;16.23;12.40;;;7.70;99.90;;;;;;5076754;28;20203;-53
2022/11/12 02:07:57;;;;;;;14.47;12.13;;;7.70;99.90;;;;;;5066619;28;20205;-52
2022/11/12 02:10:25;;;;;;;14.20;12.10;;;7.70;99.90;;;;;;5065459;28;20226;-52
2022/11/12 02:15:40;;;;;;;15.40;12.10;;;7.70;99.90;;;;;;5055326;28;20211;-52
2022/11/12 02:18:07;;;;;;;15.50;11.40;;;7.60;99.90;;;;;;5064273;28;20203;-54
2022/11/12 02:20:36;;;;;;;15.37;12.37;;;7.50;99.90;;;;;;5064869;28;20210;-52
2022/11/12 02:23:05;;;;;;;17.17;12.57;;;7.50;99.90;;;;;;5067260;28;20205;-52
2022/11/12 02:25:33;;;;;;;15.67;11.77;;;7.50;99.90;;;;;;5058908;28;20628;-51
2022/11/12 02:28:03;;;;;;;18.47;12.47;;;7.50;99.90;;;;;;5067860;28;20655;-53
2022/11/12 02:30:34;;;;;;;17.57;13.13;;;7.50;99.90;;;;;;5066542;28;20608;-53
2022/11/12 02:33:02;;;;;;;13.67;11.43;;;7.50;99.90;;;;;;5067775;28;20289;-51
2022/11/12 02:35:30;;;;;;;16.83;11.33;;;7.50;99.90;;;;;;5064603;28;20232;-53
2022/11/12 02:37:57;;;;;;;13.50;11.50;;;7.50;99.90;;;;;;5067097;28;20285;-52
2022/11/12 02:40:24;;;;;;;20.00;12.10;;;7.40;99.90;;;;;;5067006;28;20239;-52
2022/11/12 02:42:51;;;;;;;17.10;12.53;;;7.40;99.90;;;;;;5062517;28;20638;-53
2022/11/12 02:45:18;;;;;;;16.50;12.67;;;7.40;99.90;;;;;;5063381;28;20550;-54
2022/11/12 02:47:45;;;;;;;15.70;12.30;;;7.40;99.90;;;;;;5057399;28;20203;-51
2022/11/12 02:50:12;;;;;;;18.83;13.70;;;7.40;99.90;;;;;;5062957;28;20684;-50
2022/11/12 02:52:39;;;;;;;19.57;13.10;;;7.40;99.90;;;;;;5066488;28;20198;-51
2022/11/12 02:55:08;;;;;;;22.10;13.33;;;7.40;99.90;;;;;;5065559;28;20203;-53
2022/11/12 02:57:36;;;;;;;16.87;12.60;;;7.40;99.90;;;;;;5065416;28;20204;-51
2022/11/12 03:00:12;;;;;;;17.63;13.37;;;7.40;99.90;;;;;;5066394;28;20291;-52
2022/11/12 03:02:41;;;;;;;18.77;13.17;;;7.40;99.90;;;;;;5060565;28;20203;-50
2022/11/12 03:05:11;;;;;;;19.47;12.77;;;7.30;99.90;;;;;;5064096;28;20203;-49
2022/11/12 03:07:38;;;;;;;14.67;11.97;;;7.40;99.90;;;;;;5063484;28;20364;-50
2022/11/12 03:10:06;;;;;;;16.57;11.53;;;7.40;99.90;;;;;;5067922;28;20229;-51
2022/11/12 03:12:33;;;;;;;14.23;11.87;;;7.40;99.90;;;;;;5056804;28;20202;-56
2022/11/12 03:14:59;;;;;;;21.30;13.57;;;7.40;99.90;;;;;;5067532;28;20824;-50
2022/11/12 03:17:26;;;;;;;19.83;13.23;;;7.40;99.90;;;;;;5063991;28;20714;-53
2022/11/12 03:19:53;;;;;;;18.17;13.30;;;7.40;99.90;;;;;;5057613;28;20733;-51
2022/11/12 03:22:20;;;;;;;16.47;12.20;;;7.40;99.90;;;;;;5070463;28;20743;-51
2022/11/12 03:24:46;;;;;;;16.37;12.60;;;7.40;99.90;;;;;;5070894;28;20250;-51
2022/11/12 03:27:14;;;;;;;14.07;11.83;;;7.40;99.90;;;;;;5068115;28;20205;-51
2022/11/12 03:29:40;;;;;;;18.17;12.37;;;7.40;99.90;;;;;;5055027;28;20546;-53
2022/11/12 03:32:07;;;;;;;15.80;11.73;;;7.30;99.90;;;;;;5065067;28;20240;-53
2022/11/12 03:34:34;;;;;;;15.60;12.93;;;7.30;99.90;;;;;;5062581;28;20198;-62
2022/11/12 03:37:01;;;;;;;15.50;11.70;;;7.20;99.90;;;;;;5063427;28;20219;-51
2022/11/12 03:39:28;;;;;;;17.10;12.27;;;7.20;99.90;;;;;;5066510;28;20379;-51
2022/11/12 03:41:55;;;;;;;18.63;13.13;;;7.20;99.90;;;;;;5067129;28;20304;-52
2022/11/12 03:44:22;;;;;;;15.03;11.97;;;7.10;99.90;;;;;;5057956;28;20308;-51
2022/11/12 03:46:48;;;;;;;15.97;12.77;;;7.10;99.90;;;;;;5064453;28;20210;-53
2022/11/12 03:49:15;;;;;;;17.37;12.63;;;7.10;99.90;;;;;;5076515;28;20208;-52
2022/11/12 03:51:42;;;;;;;15.03;12.13;;;7.10;99.90;;;;;;5055615;28;20228;-54
2022/11/12 03:54:09;;;;;;;15.93;11.57;;;7.10;99.90;;;;;;5057525;28;20220;-54
2022/11/12 03:56:35;;;;;;;13.50;11.73;;;7.20;99.90;;;;;;5058390;28;20200;-55
2022/11/12 03:59:03;;;;;;;14.20;11.33;;;7.20;99.90;;;;;;5060683;28;20196;-53
2022/11/12 04:01:30;;;;;;;15.47;11.47;;;7.30;99.90;;;;;;5059732;28;20205;-52
2022/11/12 04:03:57;;;;;;;14.30;11.03;;;7.20;99.90;;;;;;5058856;28;20194;-52
2022/11/12 04:09:09;;;;;;;16.07;11.53;;;7.10;99.90;;;;;;5058356;28;20209;-51
2022/11/12 04:11:36;;;;;;;15.80;12.40;;;7.10;99.90;;;;;;5059600;28;20217;-52
2022/11/12 04:14:03;;;;;;;15.70;10.80;;;7.10;99.90;;;;;;5060609;28;20198;-53
2022/11/12 04:22:03;;;;;;;13.47;10.00;;;7.00;99.90;;;;;;5062233;28;20234;-51
2022/11/12 04:27:25;;;;;;;13.20;10.43;;;7.00;99.90;;;;;;5065219;28;20279;-51
2022/11/12 04:32:53;;;;;;;14.23;10.87;;;7.00;99.90;;;;;;5064890;28;20187;-53
2022/11/12 04:35:24;;;;;;;13.13;10.03;;;7.00;99.90;;;;;;5068188;28;20223;-52
2022/11/12 04:37:51;;;;;;;14.53;10.00;;;7.00;99.90;;;;;;5061945;28;20247;-51
2022/11/12 04:45:55;;;;;;;16.60;10.20;;;7.10;99.90;;;;;;5059738;28;21577;-53
2022/11/12 04:48:24;;;;;;;13.43;9.87;;;7.10;99.90;;;;;;5063254;28;20291;-52
2022/11/12 04:51:01;;;;;;;13.93;10.20;;;7.10;99.90;;;;;;5062821;28;20213;-52
2022/11/12 04:53:28;;;;;;;12.83;9.47;;;7.10;99.90;;;;;;5065526;28;20538;-50
2022/11/12 04:55:57;;;;;;;12.23;9.17;;;7.10;99.90;;;;;;5063550;28;20210;-49
2022/11/12 04:58:24;;;;;;;11.37;9.13;;;7.10;99.90;;;;;;5063683;28;20204;-50
2022/11/12 05:00:51;;;;;;;12.27;9.40;;;7.00;99.90;;;;;;5060338;28;20325;-52
2022/11/12 05:03:18;;;;;;;12.07;9.13;;;7.00;99.90;;;;;;5063788;28;20199;-51
2022/11/12 05:05:45;;;;;;;12.30;8.83;;;7.00;99.90;;;;;;5062749;28;20201;-51
2022/11/12 05:08:12;;;;;;;11.63;8.33;;;6.90;99.90;;;;;;5061991;28;20659;-52
2022/11/12 05:10:38;;;;;;;13.30;9.60;;;6.80;99.90;;;;;;5061906;28;20330;-52
2022/11/12 05:13:05;;;;;;;11.60;8.93;;;6.80;99.90;;;;;;5063218;28;20195;-51
2022/11/12 05:15:32;;;;;;;12.27;8.60;;;6.80;99.90;;;;;;5063623;28;20191;-50
2022/11/12 05:17:59;;;;;;;11.50;8.70;;;6.80;99.90;;;;;;5064352;28;20204;-52
2022/11/12 05:20:25;;;;;;;14.97;8.53;;;6.80;99.90;;;;;;5068128;28;20232;-51
2022/11/12 05:22:52;;;;;;;9.87;8.20;;;6.80;99.90;;;;;;5069089;28;20207;-53
2022/11/12 05:25:34;;;;;;;14.17;8.40;;;6.80;99.90;;;;;;5068592;28;20210;-52
2022/11/12 05:28:01;;;;;;;12.77;9.70;;;6.90;99.90;;;;;;5067009;28;20687;-53
2022/11/12 05:30:27;;;;;;;10.47;7.97;;;6.80;99.90;;;;;;5066824;28;20236;-52
2022/11/12 05:32:54;;;;;;;9.57;7.70;;;6.80;99.90;;;;;;5060702;28;20197;-52
2022/11/12 05:35:21;;;;;;;10.73;7.83;;;6.70;99.90;;;;;;5066432;28;20204;-52
2022/11/12 05:37:47;;;;;;;10.00;7.40;;;6.80;99.90;;;;;;5064871;28;20188;-51
2022/11/12 05:40:14;;;;;;;10.87;7.87;;;6.80;99.90;;;;;;5067558;28;20213;-54
2022/11/12 05:42:41;;;;;;;9.77;7.93;;;6.80;99.90;;;;;;5066839;28;20192;-53
2022/11/12 05:45:08;;;;;;;10.90;8.07;;;6.80;99.90;;;;;;5067206;28;20232;-52
2022/11/12 05:47:35;;;;;;;10.17;7.50;;;6.80;99.90;;;;;;5067125;28;20194;-52
2022/11/12 05:50:02;;;;;;;12.93;7.97;;;6.80;99.90;;;;;;5066317;28;20197;-52
2022/11/12 05:52:28;;;;;;;12.00;8.03;;;6.70;99.90;;;;;;5057716;28;20233;-51
2022/11/12 05:54:55;;;;;;;10.40;7.83;;;6.70;99.90;;;;;;5067499;28;20201;-52
2022/11/12 05:57:22;;;;;;;8.50;7.17;;;6.70;99.90;;;;;;5065401;28;20862;-50
2022/11/12 05:59:48;;;;;;;13.07;8.10;;;6.70;99.90;;;;;;5065199;28;20188;-51
2022/11/12 06:02:15;;;;;;;10.63;7.97;;;6.70;99.90;;;;;;5063236;28;20199;-53
2022/11/12 06:04:42;;;;;;;11.27;8.10;;;6.70;99.90;;;;;;5055681;28;20200;-53
2022/11/12 06:07:09;;;;;;;15.77;7.93;;;6.70;99.90;;;;;;5059939;28;20197;-52
2022/11/12 06:09:36;;;;;;;11.23;6.77;;;6.70;99.90;;;;;;5067778;28;20212;-51
2022/11/12 06:12:05;;;;;;;11.10;7.50;;;6.70;99.90;;;;;;5065175;28;20625;-52
2022/11/12 06:14:32;;;;;;;10.50;7.33;;;6.80;99.90;;;;;;5069322;28;20197;-51
2022/11/12 06:16:59;;;;;;;11.80;7.67;;;6.70;99.90;;;;;;5066622;28;20204;-50
2022/11/12 06:19:25;;;;;;;10.23;7.07;;;6.70;99.90;;;;;;5060853;28;20287;-53
2022/11/12 06:21:52;;;;;;;9.87;7.63;;;6.70;99.90;;;;;;5066195;28;20573;-52
2022/11/12 06:24:19;;;;;;;10.10;7.23;;;6.70;99.90;;;;;;5063372;28;20668;-52
2022/11/12 06:26:46;;;;;;;8.33;7.13;;;6.70;99.90;;;;;;5061288;28;20631;-52
2022/11/12 06:29:12;;;;;;;10.40;6.80;;;6.60;99.90;;;;;;5059815;28;20201;-53
2022/11/12 06:31:39;;;;;;;10.10;7.70;;;6.60;99.90;;;;;;5065531;28;20254;-53
2022/11/12 06:34:06;;;;;;;9.77;6.87;;;6.50;99.90;;;;;;5062806;28;20277;-52
2022/11/12 06:36:34;;;;;;;9.63;6.97;;;6.60;99.90;;;;;;5051856;28;20211;-52
2022/11/12 06:39:00;;;;;;;9.03;7.23;;;6.60;99.90;;;;;;5055027;28;20199;-52
2022/11/12 06:41:27;;;;;;;13.73;7.67;;;6.50;99.90;;;;;;5054378;28;20235;-51
2022/11/12 06:43:54;;;;;;;11.03;7.73;;;6.50;99.90;;;;;;5051845;28;20283;-51
2022/11/12 06:46:21;;;;;;;12.57;7.90;;;6.50;99.90;;;;;;5066249;28;20214;-52
2022/11/12 06:48:47;;;;;;;10.83;7.73;;;6.50;99.90;;;;;;5068698;28;20209;-53
2022/11/12 06:51:19;;;;;;;14.37;8.00;;;6.50;99.90;;;;;;5063234;28;20215;-51
2022/11/12 06:53:47;;;;;;;11.27;7.20;;;6.60;99.90;;;;;;5064632;28;20195;-52
2022/11/12 06:56:14;;;;;;;10.87;7.53;;;6.60;99.90;;;;;;5065423;28;20201;-54
2022/11/12 06:58:41;;;;;;;8.30;7.20;;;6.60;99.90;;;;;;5064938;28;20224;-53
2022/11/12 07:01:09;;;;;;;11.37;6.83;;;6.60;99.90;;;;;;5057122;28;20331;-53
2022/11/12 07:03:38;;;;;;;10.33;7.40;;;6.60;99.90;;;;;;5066246;28;20222;-54
2022/11/12 07:06:11;;;;;;;12.43;7.73;;;6.60;99.90;;;;;;5064931;28;20201;-56
2022/11/12 07:08:38;;;;;;;9.67;6.70;;;6.70;99.90;;;;;;5067934;28;21056;-52
2022/11/12 07:11:06;;;;;;;8.20;6.80;;;6.60;99.90;;;;;;5067910;28;20246;-52
2022/11/12 07:13:34;;;;;;;10.97;7.00;;;6.70;99.90;;;;;;5062757;28;20327;-52
2022/11/12 07:16:01;;;;;;;12.07;7.90;;;6.70;99.90;;;;;;5067252;28;20240;-51
2022/11/12 07:18:29;;;;;;;11.60;7.77;;;6.80;99.90;;;;;;5063238;28;20662;-54
2022/11/12 07:21:01;;;;;;;8.77;7.67;;;6.80;99.90;;;;;;5065507;28;20215;-53
2022/11/12 07:23:31;;;;;;;11.47;7.80;;;6.80;99.90;;;;;;5062971;28;20291;-53
2022/11/12 07:26:03;;;;;;;10.23;7.57;;;6.90;99.90;;;;;;5066075;28;20682;-51
2022/11/12 07:28:30;;;;;;;9.80;7.60;;;7.00;99.90;;;;;;5067722;28;20201;-54
2022/11/12 07:30:59;;;;;;;9.93;6.63;;;7.10;99.90;;;;;;5058342;28;20322;-51
2022/11/12 07:33:27;;;;;;;9.37;7.00;;;7.20;99.90;;;;;;5058930;28;20198;-52
2022/11/12 07:35:59;;;;;;;10.00;7.13;;;7.30;99.90;;;;;;5066642;28;20326;-53
2022/11/12 07:38:27;;;;;;;11.97;7.57;;;7.30;99.90;;;;;;5065181;28;20285;-52
2022/11/12 07:40:59;;;;;;;11.10;7.90;;;7.50;99.90;;;;;;5058931;28;20349;-52
2022/11/12 07:43:27;;;;;;;8.40;7.13;;;7.40;99.90;;;;;;5060177;28;20206;-51
2022/11/12 07:45:57;;;;;;;7.67;6.40;;;7.40;99.90;;;;;;5062719;28;20192;-53
2022/11/12 07:48:25;;;;;;;11.30;7.77;;;7.40;99.90;;;;;;5063045;28;20764;-53
2022/11/12 07:50:57;;;;;;;10.37;7.50;;;7.50;99.90;;;;;;5065425;28;20606;-52
2022/11/12 07:53:24;;;;;;;10.07;7.20;;;7.40;99.90;;;;;;5063997;28;20201;-52
2022/11/12 07:55:59;;;;;;;11.70;7.77;;;7.50;99.90;;;;;;5059308;28;20324;-51
2022/11/12 07:58:28;;;;;;;9.60;7.17;;;7.60;99.90;;;;;;5068227;28;20198;-52
2022/11/12 08:00:55;;;;;;;11.33;7.67;;;7.70;99.90;;;;;;5061305;28;20227;-56
2022/11/12 08:03:23;;;;;;;11.77;7.53;;;7.70;99.90;;;;;;5066630;28;20559;-53
2022/11/12 08:05:49;;;;;;;9.17;7.83;;;7.70;99.90;;;;;;5068156;28;20195;-51
2022/11/12 08:08:16;;;;;;;12.60;8.13;;;7.60;99.90;;;;;;5070028;28;20203;-52
2022/11/12 08:10:43;;;;;;;10.73;7.50;;;7.60;99.90;;;;;;5070520;28;20220;-50
2022/11/12 08:13:10;;;;;;;10.90;7.27;;;7.60;99.90;;;;;;5061129;28;20202;-51
2022/11/12 08:15:37;;;;;;;8.70;7.33;;;7.70;99.90;;;;;;5061152;28;20201;-52
2022/11/12 08:18:04;;;;;;;9.97;7.63;;;7.60;99.90;;;;;;5055080;28;20283;-50
2022/11/12 08:20:30;;;;;;;9.03;7.73;;;7.70;99.90;;;;;;5064794;28;20286;-52
2022/11/12 08:23:00;;;;;;;11.27;8.10;;;7.70;99.90;;;;;;5070616;28;20492;-51
2022/11/12 08:25:27;;;;;;;10.77;7.23;;;7.90;99.90;;;;;;5068597;28;20257;-51
2022/11/12 08:27:58;;;;;;;8.30;6.87;;;7.90;99.90;;;;;;5071369;28;20198;-53
2022/11/12 08:30:26;;;;;;;11.40;7.83;;;8.00;99.90;;;;;;5067189;28;20327;-52
2022/11/12 08:33:03;;;;;;;9.67;7.33;;;8.10;99.90;;;;;;5066915;28;21096;-53
2022/11/12 08:35:32;;;;;;;9.57;8.13;;;8.20;99.90;;;;;;5069211;28;20201;-51
2022/11/12 08:38:01;;;;;;;10.93;8.30;;;8.20;99.90;;;;;;5070067;28;20198;-51
2022/11/12 08:40:30;;;;;;;14.83;10.00;;;8.40;99.90;;;;;;5066746;28;20203;-52
2022/11/12 08:43:02;;;;;;;12.90;10.07;;;8.40;99.90;;;;;;5069793;28;20218;-50
2022/11/12 08:45:31;;;;;;;15.13;10.80;;;8.50;99.90;;;;;;5062800;28;20211;-52
2022/11/12 08:48:00;;;;;;;15.10;10.20;;;8.60;99.90;;;;;;5061620;28;20259;-53
2022/11/12 08:50:28;;;;;;;18.97;11.67;;;8.70;99.90;;;;;;5056315;28;20196;-53
2022/11/12 08:53:03;;;;;;;15.60;11.30;;;8.80;99.90;;;;;;5066448;28;20692;-51
2022/11/12 08:55:32;;;;;;;16.10;10.33;;;9.00;99.90;;;;;;5065773;28;20717;-52
2022/11/12 08:58:02;;;;;;;13.43;10.13;;;9.30;99.90;;;;;;5068454;28;20694;-51
2022/11/12 09:00:43;;;;;;;17.33;10.90;;;9.50;99.90;;;;;;5062976;28;20211;-52
2022/11/12 09:03:16;;;;;;;12.90;9.50;;;9.70;99.90;;;;;;5063692;28;20661;-53
2022/11/12 09:05:42;;;;;;;16.30;10.63;;;9.90;99.90;;;;;;5067668;28;20287;-51
2022/11/12 09:08:13;;;;;;;13.80;10.20;;;10.30;99.90;;;;;;5058539;28;20307;-52
2022/11/12 09:10:40;;;;;;;15.33;10.70;;;10.70;99.90;;;;;;4699062;28;9999685;-52
2022/11/12 09:13:07;;;;;;;16.83;10.40;;;11.10;99.90;;;;;;5064092;28;20340;-53
2022/11/12 09:15:34;;;;;;;13.13;10.00;;;11.40;99.90;;;;;;5055276;28;20199;-51
2022/11/12 09:18:07;;;;;;;14.27;8.83;;;11.50;99.90;;;;;;5062534;28;20659;-52
2022/11/12 09:20:34;;;;;;;9.30;8.10;;;11.60;99.90;;;;;;5064708;28;20219;-52
2022/11/12 09:23:14;;;;;;;12.57;8.60;;;11.80;99.90;;;;;;5064291;28;20330;-50
2022/11/12 09:25:41;;;;;;;13.67;8.37;;;12.00;99.90;;;;;;5054064;28;20727;-55
2022/11/12 09:28:11;;;;;;;10.27;7.60;;;12.30;99.90;;;;;;5080026;28;20203;-52
2022/11/12 09:30:42;;;;;;;10.83;8.47;;;12.50;99.90;;;;;;5063692;28;20196;-52
2022/11/12 09:33:09;;;;;;;11.43;8.43;;;12.60;99.90;;;;;;5068929;28;20258;-52
2022/11/12 09:35:35;;;;;;;11.57;6.53;;;12.60;99.90;;;;;;5065739;28;20206;-50
2022/11/12 09:38:02;;;;;;;11.57;7.17;;;12.80;99.90;;;;;;5069694;28;20279;-52
2022/11/12 09:40:50;;;;;;;9.50;7.50;;;12.70;99.90;;;;;;5066814;28;20209;-51
2022/11/12 09:43:33;;;;;;;10.97;8.33;;;12.60;99.90;;;;;;5065708;28;20703;-51
2022/11/12 09:46:15;;;;;;;9.30;6.77;;;12.80;99.90;;;;;;5066150;28;20657;-53
2022/11/12 09:49:15;;;;;;;9.87;7.67;;;12.80;99.90;;;;;;5069021;28;20237;-51
2022/11/12 09:51:48;;;;;;;10.30;7.17;;;13.10;99.90;;;;;;5061723;28;20565;-52
2022/11/12 09:54:21;;;;;;;9.43;6.90;;;13.10;99.90;;;;;;5067981;28;20684;-52
2022/11/12 09:56:49;;;;;;;8.63;6.97;;;13.10;99.90;;;;;;5069097;28;20236;-51
2022/11/12 09:59:16;;;;;;;10.27;7.13;;;13.40;99.90;;;;;;5066246;28;20207;-52
2022/11/12 10:01:52;;;;;;;10.43;7.13;;;13.30;99.90;;;;;;5067182;28;20200;-51
2022/11/12 10:04:54;;;;;;;9.20;6.97;;;13.40;99.90;;;;;;5067300;28;20207;-53
2022/11/12 10:07:40;;;;;;;12.53;7.57;;;13.60;99.90;;;;;;5066381;28;20852;-51
2022/11/12 10:10:31;;;;;;;9.43;7.10;;;13.50;99.90;;;;;;5061728;28;20221;-54
2022/11/12 10:13:33;;;;;;;9.83;7.10;;;13.50;99.90;;;;;;5056506;28;20222;-53
2022/11/12 10:19:13;;;;;;;11.53;6.50;;;13.50;99.90;;;;;;5067802;28;20286;-52
2022/11/12 10:21:59;;;;;;;9.27;6.60;;;13.60;99.90;;;;;;5063651;28;20285;-53
2022/11/12 10:24:33;;;;;;;9.10;6.90;;;13.40;99.90;;;;;;5064393;28;20203;-53
2022/11/12 10:27:01;;;;;;;7.50;6.77;;;13.30;99.90;;;;;;5065551;28;20207;-52
2022/11/12 10:29:46;;;;;;;7.53;6.57;;;13.60;99.90;;;;;;5061365;28;20210;-52
2022/11/12 10:32:15;;;;;;;8.80;5.97;;;13.70;99.90;;;;;;5064096;28;20238;-52
2022/11/12 10:34:41;;;;;;;9.73;6.27;;;13.60;99.90;;;;;;5066233;28;20196;-51
2022/11/12 10:37:41;;;;;;;7.27;6.03;;;13.70;99.90;;;;;;5073784;28;20289;-52
2022/11/12 10:40:20;;;;;;;7.73;6.53;;;13.40;99.90;;;;;;5064163;28;20274;-52
2022/11/12 10:42:59;;;;;;;9.27;6.40;;;13.70;99.90;;;;;;5060122;28;20204;-52
2022/11/12 10:45:26;;;;;;;10.73;6.03;;;13.60;99.90;;;;;;5058463;28;20673;-55
2022/11/12 10:47:53;;;;;;;8.10;6.27;;;13.70;99.90;;;;;;5065919;28;20230;-56
2022/11/12 10:50:40;;;;;;;8.17;6.20;;;13.80;99.90;;;;;;5067868;28;20563;-52
2022/11/12 10:53:10;;;;;;;7.47;5.73;;;14.00;99.90;;;;;;5067440;28;20576;-53
2022/11/12 10:55:56;;;;;;;7.20;5.80;;;14.00;99.90;;;;;;5064612;28;20199;-52
2022/11/12 10:58:23;;;;;;;9.93;6.47;;;14.00;99.90;;;;;;5062144;28;20659;-52
2022/11/12 11:01:00;;;;;;;8.53;7.10;;;14.10;99.90;;;;;;5062133;28;20690;-53
2022/11/12 11:03:33;;;;;;;9.53;6.20;;;14.00;99.90;;;;;;5055728;28;20229;-51
2022/11/12 11:06:26;;;;;;;8.47;5.60;;;14.00;99.90;;;;;;5065412;28;20316;-52
2022/11/12 11:09:16;;;;;;;6.73;5.63;;;14.00;99.90;;;;;;5057773;28;20214;-54
2022/11/12 11:11:51;;;;;;;9.53;6.03;;;14.10;99.90;;;;;;5060764;28;20223;-54
2022/11/12 11:14:39;;;;;;;6.40;5.73;;;14.40;99.90;;;;;;5062508;28;20208;-52
2022/11/12 11:17:17;;;;;;;10.43;5.53;;;14.60;99.90;;;;;;5058722;28;20219;-53
2022/11/12 11:19:43;;;;;;;8.23;5.83;;;14.90;99.90;;;;;;5059525;28;20263;-53
2022/11/12 11:22:27;;;;;;;8.37;6.53;;;14.80;99.90;;;;;;5061401;28;20593;-53
2022/11/12 11:25:26;;;;;;;7.77;6.67;;;14.70;99.90;;;;;;5059457;28;20196;-55
2022/11/12 11:28:18;;;;;;;9.73;6.93;;;15.10;99.90;;;;;;5037316;28;20200;-54
2022/11/12 11:30:57;;;;;;;10.93;7.70;;;15.10;99.90;;;;;;5045434;28;20626;-53
2022/11/12 11:33:51;;;;;;;10.10;7.73;;;15.30;99.90;;;;;;5050071;28;20337;-54
2022/11/12 11:36:26;;;;;;;10.20;7.57;;;15.30;99.90;;;;;;5020363;28;20209;-59
2022/11/12 11:39:01;;;;;;;11.73;7.20;;;15.40;99.90;;;;;;5073039;28;20187;-61
2022/11/12 11:41:43;;;;;;;10.90;8.30;;;15.70;99.90;;;;;;5081642;28;20656;-63
2022/11/12 11:44:29;;;;;;;10.17;8.00;;;15.90;99.90;;;;;;5051501;28;20188;-60
2022/11/12 11:47:11;;;;;;;8.93;7.57;;;15.90;99.90;;;;;;5064300;28;20195;-60
2022/11/12 11:49:38;;;;;;;8.63;7.67;;;15.90;99.90;;;;;;5057173;28;20643;-59
2022/11/12 11:52:36;;;;;;;9.67;7.30;;;16.00;99.90;;;;;;5058646;28;20215;-60
2022/11/12 11:55:13;;;;;;;10.97;7.47;;;16.20;99.90;;;;;;5051614;28;20219;-60
2022/11/12 11:58:27;;;;;;;9.83;7.80;;;16.30;99.90;;;;;;5058097;28;20287;-61
2022/11/12 12:01:10;;;;;;;9.60;7.40;;;16.70;99.90;;;;;;4978448;28;20273;-60
2022/11/12 12:03:59;;;;;;;10.20;7.40;;;17.00;99.90;;;;;;5055211;28;20209;-61
2022/11/12 12:06:29;;;;;;;10.10;7.80;;;17.00;99.90;;;;;;5059373;28;20201;-59
2022/11/12 12:09:23;;;;;;;10.17;7.73;;;17.20;99.90;;;;;;5050755;28;20367;-60
2022/11/12 12:12:04;;;;;;;11.17;8.27;;;17.40;99.90;;;;;;5050606;28;21142;-60
2022/11/12 12:14:37;;;;;;;9.73;7.57;;;17.30;99.90;;;;;;5054912;28;20904;-59
2022/11/12 12:17:22;;;;;;;9.30;7.80;;;17.50;99.90;;;;;;5054753;28;20299;-63
2022/11/12 12:20:08;;;;;;;10.57;7.47;;;18.00;99.90;;;;;;5051892;28;20215;-59
2022/11/12 12:22:45;;;;;;;9.80;7.40;;;18.40;99.90;;;;;;5058696;28;20212;-63
2022/11/12 12:25:22;;;;;;;10.63;7.20;;;18.80;99.90;;;;;;5052467;28;20676;-63
2022/11/12 12:28:20;;;;;;;13.93;8.43;;;19.30;99.90;;;;;;5051131;28;20215;-60
2022/11/12 12:30:51;;;;;;;14.30;10.30;;;19.10;99.90;;;;;;5050857;28;20206;-63
2022/11/12 12:33:29;;;;;;;13.37;9.67;;;19.40;99.90;;;;;;5061501;28;20216;-61
2022/11/12 12:36:07;;;;;;;15.07;11.13;;;19.70;99.90;;;;;;5049567;28;20207;-61
2022/11/12 12:38:58;;;;;;;15.30;11.17;;;19.60;99.90;;;;;;5057195;28;20196;-60
2022/11/12 12:41:31;;;;;;;14.10;10.40;;;19.60;99.90;;;;;;5054226;28;20217;-60
2022/11/12 12:44:04;;;;;;;12.53;10.03;;;19.90;99.90;;;;;;5050356;28;20198;-60
2022/11/12 12:46:37;;;;;;;11.47;9.63;;;19.80;99.90;;;;;;5052647;28;20286;-64
2022/11/12 12:49:06;;;;;;;9.63;8.33;;;19.40;99.90;;;;;;5067252;28;20210;-60
2022/11/12 12:51:34;;;;;;;11.67;8.70;;;19.40;99.90;;;;;;5060864;28;20266;-60
2022/11/12 12:54:01;;;;;;;9.50;8.23;;;19.40;99.90;;;;;;5067084;28;20218;-60
2022/11/12 12:56:30;;;;;;;10.77;8.43;;;19.00;99.90;;;;;;5063281;28;20254;-59
2022/11/12 12:59:02;;;;;;;10.97;9.13;;;18.50;99.90;;;;;;5059593;28;20739;-60
2022/11/12 13:01:34;;;;;;;10.40;8.13;;;18.30;99.90;;;;;;5069242;28;20635;-62
2022/11/12 13:04:07;;;;;;;10.83;9.00;;;18.00;99.90;;;;;;5063841;28;20608;-60
2022/11/12 13:06:45;;;;;;;13.13;9.10;;;18.20;99.90;;;;;;5061391;28;20239;-60
2022/11/12 13:09:11;;;;;;;11.17;8.27;;;18.50;99.90;;;;;;5068125;28;20196;-61
2022/11/12 13:14:35;;;;;;;10.97;8.63;;;18.40;99.90;;;;;;5071627;28;20873;-61
2022/11/12 13:17:10;;;;;;;9.40;8.33;;;18.60;99.90;;;;;;5069421;28;20349;-60
2022/11/12 13:19:52;;;;;;;11.17;8.80;;;18.70;99.90;;;;;;5064027;28;20233;-60
2022/11/12 13:22:19;;;;;;;10.03;9.00;;;18.70;99.90;;;;;;5065571;28;20198;-62
2022/11/12 13:25:04;;;;;;;11.13;9.13;;;18.40;99.90;;;;;;5063560;28;20963;-60
2022/11/12 13:27:43;;;;;;;12.90;9.13;;;18.10;99.90;;;;;;5070587;28;20296;-61
2022/11/12 13:30:13;;;;;;;10.17;8.40;;;18.20;99.90;;;;;;5062900;28;20229;-59